EWG3CM LOWS-EDDH
Flight info
| Callsign | EWG3CM |
|---|---|
| Flight time | N/A |
| Altitude | 36000 |
| Route | INROM DCT SIMBA Y700 NENUM DCT EPTEU L604 RUDNO M736 AKOSI DCT ABGUS DCT DIRBO/N0407F230 T902 RARUP RARUP3S |
| Aircraft | A319/M-SDE3FGHIRWY/LB1 |
Departure
| Time | N/A |
|---|---|
| Airport | Salzburg Airport (LOWS) |
Arrival
| Time | 2026-04-24 12:00 |
|---|---|
| Airport | Hamburg Helmut Schmidt Airport (EDDH) |
| Time | Latitude | Longitude | Altitude | Speed | Heading |
|---|---|---|---|---|---|
| 2026-04-24 11:31 | 51.77837 | 11.09795 | 36184 ft | 425 kts | 339° |
| 2026-04-24 11:32 | 51.83492 | 11.06961 | 36186 ft | 425 kts | 339° |
| 2026-04-24 11:32 | 51.89266 | 11.04794 | 36191 ft | 429 kts | 348° |
| 2026-04-24 11:33 | 51.95162 | 11.03550 | 36189 ft | 429 kts | 348° |
| 2026-04-24 11:33 | 52.01099 | 11.02294 | 36209 ft | 430 kts | 348° |
| 2026-04-24 11:34 | 52.07030 | 11.01023 | 36210 ft | 429 kts | 348° |
| 2026-04-24 11:34 | 52.12958 | 10.99747 | 36207 ft | 429 kts | 348° |
| 2026-04-24 11:35 | 52.18869 | 10.98481 | 35734 ft | 427 kts | 348° |
| 2026-04-24 11:35 | 52.21826 | 10.97845 | 35123 ft | 429 kts | 348° |
| 2026-04-24 11:35 | 52.24752 | 10.97209 | 34494 ft | 430 kts | 348° |
| 2026-04-24 11:36 | 52.27719 | 10.96562 | 33805 ft | 431 kts | 348° |
| 2026-04-24 11:36 | 52.30696 | 10.95917 | 33040 ft | 432 kts | 348° |
| 2026-04-24 11:36 | 52.33690 | 10.95271 | 32227 ft | 434 kts | 348° |
| 2026-04-24 11:36 | 52.36696 | 10.94619 | 31354 ft | 437 kts | 349° |
| 2026-04-24 11:37 | 52.39717 | 10.93966 | 30679 ft | 436 kts | 349° |
| 2026-04-24 11:37 | 52.42716 | 10.93318 | 30082 ft | 432 kts | 349° |
| 2026-04-24 11:37 | 52.45688 | 10.92674 | 29430 ft | 428 kts | 349° |
| 2026-04-24 11:37 | 52.48630 | 10.92039 | 28802 ft | 424 kts | 349° |
| 2026-04-24 11:38 | 52.51541 | 10.91405 | 28206 ft | 420 kts | 349° |
| 2026-04-24 11:38 | 52.54422 | 10.90774 | 27627 ft | 415 kts | 349° |
| 2026-04-24 11:38 | 52.57236 | 10.90159 | 27045 ft | 411 kts | 349° |
| 2026-04-24 11:38 | 52.60063 | 10.89537 | 26462 ft | 407 kts | 349° |
| 2026-04-24 11:39 | 52.62856 | 10.88920 | 25888 ft | 404 kts | 349° |
| 2026-04-24 11:39 | 52.65631 | 10.88306 | 25311 ft | 400 kts | 349° |
| 2026-04-24 11:39 | 52.68377 | 10.87698 | 24766 ft | 397 kts | 349° |
| 2026-04-24 11:39 | 52.71104 | 10.87096 | 24234 ft | 394 kts | 349° |
| 2026-04-24 11:40 | 52.73810 | 10.86499 | 23709 ft | 391 kts | 349° |
| 2026-04-24 11:40 | 52.76499 | 10.85909 | 23123 ft | 388 kts | 349° |
| 2026-04-24 11:40 | 52.79172 | 10.85317 | 22545 ft | 385 kts | 349° |
| 2026-04-24 11:40 | 52.81815 | 10.84737 | 22034 ft | 382 kts | 349° |
| 2026-04-24 11:41 | 52.84442 | 10.84164 | 21514 ft | 379 kts | 350° |
| 2026-04-24 11:41 | 52.87042 | 10.83618 | 20985 ft | 375 kts | 350° |
| 2026-04-24 11:41 | 52.89627 | 10.83091 | 20460 ft | 372 kts | 350° |
| 2026-04-24 11:41 | 52.92191 | 10.82577 | 19945 ft | 369 kts | 351° |
| 2026-04-24 11:42 | 52.94733 | 10.82068 | 19427 ft | 367 kts | 351° |
| 2026-04-24 11:42 | 52.97257 | 10.81561 | 18910 ft | 364 kts | 351° |
| 2026-04-24 11:42 | 52.99761 | 10.81055 | 18382 ft | 361 kts | 351° |
| 2026-04-24 11:42 | 53.02240 | 10.80552 | 17808 ft | 357 kts | 351° |
| 2026-04-24 11:43 | 53.04697 | 10.80053 | 17255 ft | 353 kts | 351° |
| 2026-04-24 11:43 | 53.07095 | 10.79562 | 16726 ft | 349 kts | 351° |
| 2026-04-24 11:43 | 53.09494 | 10.79071 | 16192 ft | 345 kts | 351° |
| 2026-04-24 11:43 | 53.11865 | 10.78582 | 15667 ft | 342 kts | 351° |
| 2026-04-24 11:44 | 53.14212 | 10.78098 | 15147 ft | 338 kts | 351° |
| 2026-04-24 11:44 | 53.16539 | 10.77616 | 14636 ft | 334 kts | 351° |
| 2026-04-24 11:44 | 53.18066 | 10.77300 | 14285 ft | 332 kts | 352° |
| 2026-04-24 11:44 | 53.20350 | 10.76832 | 13739 ft | 329 kts | 352° |
| 2026-04-24 11:45 | 53.22613 | 10.76369 | 13164 ft | 326 kts | 352° |
| 2026-04-24 11:45 | 53.24854 | 10.75907 | 12612 ft | 323 kts | 352° |
| 2026-04-24 11:45 | 53.27084 | 10.75448 | 12081 ft | 320 kts | 352° |
| 2026-04-24 11:45 | 53.29281 | 10.74993 | 11568 ft | 316 kts | 352° |
| 2026-04-24 11:46 | 53.31458 | 10.74538 | 11031 ft | 313 kts | 352° |
| 2026-04-24 11:46 | 53.33613 | 10.74086 | 10517 ft | 311 kts | 352° |
| 2026-04-24 11:46 | 53.35755 | 10.73640 | 10064 ft | 307 kts | 352° |
| 2026-04-24 11:46 | 53.37799 | 10.73219 | 9944 ft | 292 kts | 352° |
| 2026-04-24 11:47 | 53.39772 | 10.72815 | 9803 ft | 280 kts | 352° |
| 2026-04-24 11:47 | 53.41673 | 10.72422 | 9662 ft | 269 kts | 352° |
| 2026-04-24 11:47 | 53.43507 | 10.72040 | 9373 ft | 264 kts | 352° |
| 2026-04-24 11:47 | 53.45310 | 10.71585 | 9030 ft | 261 kts | 345° |
| 2026-04-24 11:48 | 53.46948 | 10.70287 | 8654 ft | 261 kts | 330° |
| 2026-04-24 11:48 | 53.48505 | 10.68723 | 8286 ft | 260 kts | 329° |
| 2026-04-24 11:48 | 53.50045 | 10.67149 | 7935 ft | 258 kts | 329° |
| 2026-04-24 11:48 | 53.51557 | 10.65603 | 7779 ft | 250 kts | 329° |
| 2026-04-24 11:49 | 53.53012 | 10.64112 | 7663 ft | 241 kts | 329° |
| 2026-04-24 11:49 | 53.54427 | 10.62666 | 7541 ft | 233 kts | 329° |
| 2026-04-24 11:49 | 53.55769 | 10.61294 | 7412 ft | 225 kts | 329° |
| 2026-04-24 11:49 | 53.57096 | 10.59937 | 7172 ft | 222 kts | 329° |
| 2026-04-24 11:50 | 53.58411 | 10.58594 | 6901 ft | 221 kts | 329° |
| 2026-04-24 11:50 | 53.59720 | 10.57256 | 6633 ft | 220 kts | 329° |
| 2026-04-24 11:50 | 53.61024 | 10.55922 | 6338 ft | 219 kts | 329° |
| 2026-04-24 11:50 | 53.62326 | 10.54594 | 6019 ft | 219 kts | 329° |
| 2026-04-24 11:51 | 53.63629 | 10.53262 | 5695 ft | 219 kts | 329° |
| 2026-04-24 11:51 | 53.64929 | 10.51930 | 5407 ft | 218 kts | 329° |
| 2026-04-24 11:51 | 53.66217 | 10.50602 | 5106 ft | 217 kts | 329° |
| 2026-04-24 11:51 | 53.67506 | 10.49271 | 4751 ft | 217 kts | 329° |
| 2026-04-24 11:52 | 53.68798 | 10.47948 | 4453 ft | 216 kts | 329° |
| 2026-04-24 11:52 | 53.70079 | 10.46650 | 4148 ft | 215 kts | 329° |
| 2026-04-24 11:52 | 53.71356 | 10.45375 | 3944 ft | 209 kts | 329° |
| 2026-04-24 11:52 | 53.72579 | 10.44150 | 3813 ft | 200 kts | 330° |
| 2026-04-24 11:53 | 53.73746 | 10.42959 | 3651 ft | 193 kts | 329° |
| 2026-04-24 11:53 | 53.74896 | 10.41789 | 3402 ft | 191 kts | 329° |
| 2026-04-24 11:53 | 53.76018 | 10.40603 | 3178 ft | 188 kts | 322° |
| 2026-04-24 11:53 | 53.76683 | 10.38785 | 3034 ft | 191 kts | 283° |
| 2026-04-24 11:54 | 53.76649 | 10.36521 | 2979 ft | 195 kts | 267° |
| 2026-04-24 11:54 | 53.76426 | 10.34250 | 2978 ft | 198 kts | 263° |
| 2026-04-24 11:54 | 53.76194 | 10.31949 | 2982 ft | 199 kts | 264° |
| 2026-04-24 11:54 | 53.75965 | 10.29631 | 2994 ft | 199 kts | 264° |
| 2026-04-24 11:55 | 53.75732 | 10.27331 | 2991 ft | 198 kts | 263° |
| 2026-04-24 11:55 | 53.75486 | 10.25038 | 2994 ft | 201 kts | 261° |
| 2026-04-24 11:55 | 53.74869 | 10.22898 | 2998 ft | 207 kts | 236° |
| 2026-04-24 11:55 | 53.73960 | 10.21047 | 2997 ft | 203 kts | 234° |
| 2026-04-24 11:56 | 53.73079 | 10.19266 | 2990 ft | 187 kts | 237° |
| 2026-04-24 11:56 | 53.72279 | 10.17635 | 2783 ft | 179 kts | 235° |
| 2026-04-24 11:56 | 53.71504 | 10.16053 | 2562 ft | 171 kts | 237° |
| 2026-04-24 11:56 | 53.70755 | 10.14524 | 2330 ft | 166 kts | 238° |
| 2026-04-24 11:57 | 53.70029 | 10.13044 | 2109 ft | 161 kts | 237° |
| 2026-04-24 11:57 | 53.69328 | 10.11615 | 1888 ft | 155 kts | 236° |
| 2026-04-24 11:57 | 53.68656 | 10.10247 | 1686 ft | 148 kts | 237° |
| 2026-04-24 11:57 | 53.68011 | 10.08934 | 1476 ft | 140 kts | 236° |
| 2026-04-24 11:58 | 53.67405 | 10.07701 | 1295 ft | 135 kts | 236° |
| 2026-04-24 11:58 | 53.66812 | 10.06509 | 1122 ft | 129 kts | 237° |
| 2026-04-24 11:58 | 53.66233 | 10.05342 | 921 ft | 128 kts | 238° |
| 2026-04-24 11:58 | 53.65667 | 10.04182 | 738 ft | 129 kts | 237° |
| 2026-04-24 11:59 | 53.65102 | 10.02999 | 554 ft | 127 kts | 239° |
| 2026-04-24 11:59 | 53.64523 | 10.01844 | 339 ft | 132 kts | 232° |
| 2026-04-24 11:59 | 53.63945 | 10.00671 | 182 ft | 131 kts | 233° |
| 2026-04-24 11:59 | 53.63373 | 9.99500 | 51 ft | 126 kts | 233° |
| 2026-04-24 12:00 | 53.62887 | 9.98518 | 44 ft | 86 kts | 230° |
| 2026-04-24 12:00 | 53.62615 | 9.97969 | 41 ft | 36 kts | 230° |
| 2026-04-24 12:00 | 53.62489 | 9.97777 | 41 ft | 17 kts | 173° |
| 2026-04-24 12:00 | 53.62430 | 9.97923 | 46 ft | 16 kts | 84° |
| 2026-04-24 12:01 | 53.62460 | 9.98086 | 45 ft | 16 kts | 57° |
| 2026-04-24 12:01 | 53.62521 | 9.98210 | 47 ft | 10 kts | 50° |
| 2026-04-24 12:01 | 53.62548 | 9.98263 | 47 ft | 6 kts | 49° |
| 2026-04-24 12:01 | 53.62583 | 9.98334 | 47 ft | 9 kts | 50° |
| 2026-04-24 12:02 | 53.62630 | 9.98429 | 47 ft | 12 kts | 50° |
| 2026-04-24 12:02 | 53.62687 | 9.98545 | 47 ft | 14 kts | 50° |
| 2026-04-24 12:02 | 53.62756 | 9.98684 | 47 ft | 17 kts | 51° |
| 2026-04-24 12:02 | 53.62835 | 9.98846 | 47 ft | 19 kts | 50° |
| 2026-04-24 12:03 | 53.62926 | 9.99028 | 47 ft | 21 kts | 50° |
| 2026-04-24 12:03 | 53.63026 | 9.99232 | 47 ft | 24 kts | 50° |
| 2026-04-24 12:03 | 53.63129 | 9.99471 | 46 ft | 27 kts | 54° |
| 2026-04-24 12:03 | 53.63249 | 9.99715 | 48 ft | 27 kts | 43° |
| 2026-04-24 12:04 | 53.63378 | 9.99962 | 48 ft | 25 kts | 50° |
| 2026-04-24 12:04 | 53.63432 | 10.00179 | 48 ft | 18 kts | 115° |
| 2026-04-24 12:04 | 53.63316 | 10.00234 | 48 ft | 14 kts | 177° |
| 2026-04-24 12:04 | 53.63289 | 10.00281 | 48 ft | 6 kts | 82° |
| 2026-04-24 12:05 | 53.63292 | 10.00349 | 48 ft | 2 kts | 87° |
| 2026-04-24 12:05 | 53.63292 | 10.00362 | 48 ft | 0 kts | 87° |